sensor_id;sensor_type;location;lat;lon;timestamp;temperature;humidity
64226;DHT22;50545;56.064;26.178;2022-12-18T00:01:30;-10.80;99.90
64226;DHT22;50545;56.064;26.178;2022-12-18T00:03:58;-10.90;99.90
64226;DHT22;50545;56.064;26.178;2022-12-18T00:06:28;-11.00;99.90
64226;DHT22;50545;56.064;26.178;2022-12-18T00:08:57;-11.00;99.90
64226;DHT22;50545;56.064;26.178;2022-12-18T00:11:27;-11.00;99.90
64226;DHT22;50545;56.064;26.178;2022-12-18T00:13:56;-11.00;99.90
64226;DHT22;50545;56.064;26.178;2022-12-18T00:16:25;-11.00;99.90
64226;DHT22;50545;56.064;26.178;2022-12-18T00:18:56;-10.90;99.90
64226;DHT22;50545;56.064;26.178;2022-12-18T00:21:27;-10.90;99.90
64226;DHT22;50545;56.064;26.178;2022-12-18T00:23:56;-10.90;99.90
64226;DHT22;50545;56.064;26.178;2022-12-18T00:26:25;-10.90;99.90
64226;DHT22;50545;56.064;26.178;2022-12-18T00:28:54;-11.00;99.90
64226;DHT22;50545;56.064;26.178;2022-12-18T00:31:24;-10.90;99.90
64226;DHT22;50545;56.064;26.178;2022-12-18T00:33:56;-11.00;99.90
64226;DHT22;50545;56.064;26.178;2022-12-18T00:36:26;-11.00;99.90
64226;DHT22;50545;56.064;26.178;2022-12-18T00:38:55;-11.00;99.90
64226;DHT22;50545;56.064;26.178;2022-12-18T00:41:23;-11.00;99.90
64226;DHT22;50545;56.064;26.178;2022-12-18T00:44:12;-11.00;99.90
64226;DHT22;50545;56.064;26.178;2022-12-18T00:46:41;-11.00;99.90
64226;DHT22;50545;56.064;26.178;2022-12-18T00:49:08;-11.00;99.90
64226;DHT22;50545;56.064;26.178;2022-12-18T00:51:39;-10.90;99.90
64226;DHT22;50545;56.064;26.178;2022-12-18T00:54:06;-10.90;99.90
64226;DHT22;50545;56.064;26.178;2022-12-18T00:56:36;-10.90;99.90
64226;DHT22;50545;56.064;26.178;2022-12-18T00:59:16;-10.90;99.90
64226;DHT22;50545;56.064;26.178;2022-12-18T01:01:43;-10.90;99.90
64226;DHT22;50545;56.064;26.178;2022-12-18T01:04:11;-10.90;99.90
64226;DHT22;50545;56.064;26.178;2022-12-18T01:06:39;-10.90;99.90
64226;DHT22;50545;56.064;26.178;2022-12-18T01:09:06;-10.90;99.90
64226;DHT22;50545;56.064;26.178;2022-12-18T01:11:33;-10.90;99.90
64226;DHT22;50545;56.064;26.178;2022-12-18T01:14:01;-10.90;99.90
64226;DHT22;50545;56.064;26.178;2022-12-18T01:16:28;-10.90;99.90
64226;DHT22;50545;56.064;26.178;2022-12-18T01:18:55;-10.90;99.90
64226;DHT22;50545;56.064;26.178;2022-12-18T01:21:23;-10.90;99.90
64226;DHT22;50545;56.064;26.178;2022-12-18T01:23:52;-10.90;99.90
64226;DHT22;50545;56.064;26.178;2022-12-18T01:26:20;-10.90;99.90
64226;DHT22;50545;56.064;26.178;2022-12-18T01:28:48;-10.90;99.90
64226;DHT22;50545;56.064;26.178;2022-12-18T01:31:22;-10.90;99.90
64226;DHT22;50545;56.064;26.178;2022-12-18T01:33:50;-10.90;99.90
64226;DHT22;50545;56.064;26.178;2022-12-18T01:38:50;-10.90;99.90
64226;DHT22;50545;56.064;26.178;2022-12-18T01:41:21;-10.90;99.90
64226;DHT22;50545;56.064;26.178;2022-12-18T01:46:18;-10.90;99.90
64226;DHT22;50545;56.064;26.178;2022-12-18T01:48:48;-10.90;99.90
64226;DHT22;50545;56.064;26.178;2022-12-18T01:51:16;-10.90;99.90
64226;DHT22;50545;56.064;26.178;2022-12-18T01:53:44;-10.90;99.90
64226;DHT22;50545;56.064;26.178;2022-12-18T01:56:14;-10.90;99.90
64226;DHT22;50545;56.064;26.178;2022-12-18T01:59:01;-11.00;99.90
64226;DHT22;50545;56.064;26.178;2022-12-18T02:01:30;-11.00;99.90
64226;DHT22;50545;56.064;26.178;2022-12-18T02:04:21;-11.10;99.90
64226;DHT22;50545;56.064;26.178;2022-12-18T02:09:36;-11.20;99.90
64226;DHT22;50545;56.064;26.178;2022-12-18T02:12:19;-11.20;99.90
64226;DHT22;50545;56.064;26.178;2022-12-18T02:15:13;-11.20;99.90
64226;DHT22;50545;56.064;26.178;2022-12-18T02:17:57;-11.20;99.90
64226;DHT22;50545;56.064;26.178;2022-12-18T02:28:29;-11.30;99.90
64226;DHT22;50545;56.064;26.178;2022-12-18T02:31:01;-11.30;99.90
64226;DHT22;50545;56.064;26.178;2022-12-18T02:33:30;-11.30;99.90
64226;DHT22;50545;56.064;26.178;2022-12-18T02:36:00;-11.40;99.90
64226;DHT22;50545;56.064;26.178;2022-12-18T02:38:29;-11.30;99.90
64226;DHT22;50545;56.064;26.178;2022-12-18T02:40:57;-11.40;99.90
64226;DHT22;50545;56.064;26.178;2022-12-18T02:43:25;-11.50;99.90
64226;DHT22;50545;56.064;26.178;2022-12-18T02:45:56;-11.50;99.90
64226;DHT22;50545;56.064;26.178;2022-12-18T02:48:29;-11.50;99.90
64226;DHT22;50545;56.064;26.178;2022-12-18T02:54:10;-11.60;99.90
64226;DHT22;50545;56.064;26.178;2022-12-18T02:56:49;-11.60;99.90
64226;DHT22;50545;56.064;26.178;2022-12-18T02:59:21;-11.70;99.90
64226;DHT22;50545;56.064;26.178;2022-12-18T03:02:02;-11.70;99.90
64226;DHT22;50545;56.064;26.178;2022-12-18T03:07:58;-11.80;99.90
64226;DHT22;50545;56.064;26.178;2022-12-18T03:10:30;-11.90;99.90
64226;DHT22;50545;56.064;26.178;2022-12-18T03:13:13;-11.90;99.90
64226;DHT22;50545;56.064;26.178;2022-12-18T03:15:48;-11.90;99.90
64226;DHT22;50545;56.064;26.178;2022-12-18T03:18:26;-12.00;99.90
64226;DHT22;50545;56.064;26.178;2022-12-18T03:20:58;-12.10;99.90
64226;DHT22;50545;56.064;26.178;2022-12-18T03:23:30;-12.10;99.90
64226;DHT22;50545;56.064;26.178;2022-12-18T03:26:16;-12.20;99.90
64226;DHT22;50545;56.064;26.178;2022-12-18T03:28:52;-12.30;99.90
64226;DHT22;50545;56.064;26.178;2022-12-18T03:31:23;-12.30;99.90
64226;DHT22;50545;56.064;26.178;2022-12-18T03:33:56;-12.40;99.90
64226;DHT22;50545;56.064;26.178;2022-12-18T03:36:25;-12.40;99.90
64226;DHT22;50545;56.064;26.178;2022-12-18T03:38:52;-12.40;99.90
64226;DHT22;50545;56.064;26.178;2022-12-18T03:44:11;-12.60;99.90
64226;DHT22;50545;56.064;26.178;2022-12-18T03:49:25;-12.80;99.90
64226;DHT22;50545;56.064;26.178;2022-12-18T03:52:03;-12.90;99.90
64226;DHT22;50545;56.064;26.178;2022-12-18T03:54:32;-12.90;99.90
64226;DHT22;50545;56.064;26.178;2022-12-18T03:57:13;-13.00;99.90
64226;DHT22;50545;56.064;26.178;2022-12-18T03:59:43;-13.10;99.90
64226;DHT22;50545;56.064;26.178;2022-12-18T04:02:12;-13.10;99.90
64226;DHT22;50545;56.064;26.178;2022-12-18T04:04:42;-13.20;99.90
64226;DHT22;50545;56.064;26.178;2022-12-18T04:07:10;-13.20;99.90
64226;DHT22;50545;56.064;26.178;2022-12-18T04:09:39;-13.30;99.90
64226;DHT22;50545;56.064;26.178;2022-12-18T04:12:08;-13.30;99.90
64226;DHT22;50545;56.064;26.178;2022-12-18T04:14:35;-13.40;99.90
64226;DHT22;50545;56.064;26.178;2022-12-18T04:17:03;-13.40;99.90
64226;DHT22;50545;56.064;26.178;2022-12-18T04:19:30;-13.50;99.90
64226;DHT22;50545;56.064;26.178;2022-12-18T04:21:57;-13.50;99.90
64226;DHT22;50545;56.064;26.178;2022-12-18T04:24:24;-13.60;99.90
64226;DHT22;50545;56.064;26.178;2022-12-18T04:26:52;-13.70;99.90
64226;DHT22;50545;56.064;26.178;2022-12-18T04:29:19;-13.80;99.90
64226;DHT22;50545;56.064;26.178;2022-12-18T04:31:46;-13.90;99.90
64226;DHT22;50545;56.064;26.178;2022-12-18T04:34:14;-14.00;99.90
64226;DHT22;50545;56.064;26.178;2022-12-18T04:36:41;-14.10;99.90
64226;DHT22;50545;56.064;26.178;2022-12-18T04:39:08;-14.20;99.90
64226;DHT22;50545;56.064;26.178;2022-12-18T04:41:35;-14.30;99.90
64226;DHT22;50545;56.064;26.178;2022-12-18T04:44:03;-14.30;99.90
64226;DHT22;50545;56.064;26.178;2022-12-18T04:46:30;-14.40;99.90
64226;DHT22;50545;56.064;26.178;2022-12-18T04:48:58;-14.40;99.90
64226;DHT22;50545;56.064;26.178;2022-12-18T04:51:25;-14.50;99.90
64226;DHT22;50545;56.064;26.178;2022-12-18T04:53:53;-14.60;99.90
64226;DHT22;50545;56.064;26.178;2022-12-18T04:56:20;-14.60;99.90
64226;DHT22;50545;56.064;26.178;2022-12-18T04:58:48;-14.70;99.90
64226;DHT22;50545;56.064;26.178;2022-12-18T05:01:17;-14.80;99.90
64226;DHT22;50545;56.064;26.178;2022-12-18T05:03:45;-14.90;99.90
64226;DHT22;50545;56.064;26.178;2022-12-18T05:06:12;-15.00;99.90
64226;DHT22;50545;56.064;26.178;2022-12-18T05:08:39;-15.00;99.90
64226;DHT22;50545;56.064;26.178;2022-12-18T05:11:09;-15.10;99.90
64226;DHT22;50545;56.064;26.178;2022-12-18T05:13:37;-15.10;99.90
64226;DHT22;50545;56.064;26.178;2022-12-18T05:16:05;-15.10;99.90
64226;DHT22;50545;56.064;26.178;2022-12-18T05:18:33;-15.20;99.90
64226;DHT22;50545;56.064;26.178;2022-12-18T05:21:01;-15.30;99.90
64226;DHT22;50545;56.064;26.178;2022-12-18T05:23:28;-15.40;99.90
64226;DHT22;50545;56.064;26.178;2022-12-18T05:25:58;-15.40;99.90
64226;DHT22;50545;56.064;26.178;2022-12-18T05:28:27;-15.40;99.90
64226;DHT22;50545;56.064;26.178;2022-12-18T05:30:57;-15.50;99.90
64226;DHT22;50545;56.064;26.178;2022-12-18T05:33:26;-15.50;99.90
64226;DHT22;50545;56.064;26.178;2022-12-18T05:35:57;-15.60;99.90
64226;DHT22;50545;56.064;26.178;2022-12-18T05:38:26;-15.60;99.90
64226;DHT22;50545;56.064;26.178;2022-12-18T05:40:54;-15.60;99.90
64226;DHT22;50545;56.064;26.178;2022-12-18T05:43:23;-15.70;99.90
64226;DHT22;50545;56.064;26.178;2022-12-18T05:45:50;-15.80;99.90
64226;DHT22;50545;56.064;26.178;2022-12-18T05:48:18;-15.80;99.90
64226;DHT22;50545;56.064;26.178;2022-12-18T05:50:47;-15.90;99.90
64226;DHT22;50545;56.064;26.178;2022-12-18T05:53:16;-15.90;99.90
64226;DHT22;50545;56.064;26.178;2022-12-18T05:55:44;-15.90;99.90
64226;DHT22;50545;56.064;26.178;2022-12-18T05:58:12;-16.00;99.90
64226;DHT22;50545;56.064;26.178;2022-12-18T06:00:42;-16.00;99.90
64226;DHT22;50545;56.064;26.178;2022-12-18T06:03:10;-16.00;99.90
64226;DHT22;50545;56.064;26.178;2022-12-18T06:05:40;-16.00;99.90
64226;DHT22;50545;56.064;26.178;2022-12-18T06:08:08;-16.00;99.90
64226;DHT22;50545;56.064;26.178;2022-12-18T06:10:35;-16.00;99.90
64226;DHT22;50545;56.064;26.178;2022-12-18T06:13:03;-16.00;99.90
64226;DHT22;50545;56.064;26.178;2022-12-18T06:15:31;-15.90;99.90
64226;DHT22;50545;56.064;26.178;2022-12-18T06:17:58;-15.80;99.90
64226;DHT22;50545;56.064;26.178;2022-12-18T06:20:25;-15.70;99.90
64226;DHT22;50545;56.064;26.178;2022-12-18T06:22:59;-15.60;99.90
64226;DHT22;50545;56.064;26.178;2022-12-18T06:25:26;-15.50;99.90
64226;DHT22;50545;56.064;26.178;2022-12-18T06:27:53;-15.50;99.90
64226;DHT22;50545;56.064;26.178;2022-12-18T06:30:20;-15.30;99.90
64226;DHT22;50545;56.064;26.178;2022-12-18T06:32:48;-15.30;99.90
64226;DHT22;50545;56.064;26.178;2022-12-18T06:35:22;-15.20;99.90
64226;DHT22;50545;56.064;26.178;2022-12-18T06:37:49;-15.10;99.90
64226;DHT22;50545;56.064;26.178;2022-12-18T06:40:16;-15.00;99.90
64226;DHT22;50545;56.064;26.178;2022-12-18T06:42:44;-14.90;99.90
64226;DHT22;50545;56.064;26.178;2022-12-18T06:45:11;-14.80;99.90
64226;DHT22;50545;56.064;26.178;2022-12-18T06:47:38;-14.80;99.90
64226;DHT22;50545;56.064;26.178;2022-12-18T06:50:06;-14.70;99.90
64226;DHT22;50545;56.064;26.178;2022-12-18T06:52:33;-14.60;99.90
64226;DHT22;50545;56.064;26.178;2022-12-18T06:55:01;-14.60;99.90
64226;DHT22;50545;56.064;26.178;2022-12-18T06:57:28;-14.50;99.90
64226;DHT22;50545;56.064;26.178;2022-12-18T06:59:55;-14.50;99.90
64226;DHT22;50545;56.064;26.178;2022-12-18T07:02:22;-14.40;99.90
64226;DHT22;50545;56.064;26.178;2022-12-18T07:04:50;-14.40;99.90
64226;DHT22;50545;56.064;26.178;2022-12-18T07:07:17;-14.30;99.90
64226;DHT22;50545;56.064;26.178;2022-12-18T07:09:44;-14.30;99.90
64226;DHT22;50545;56.064;26.178;2022-12-18T07:12:11;-14.30;99.90
64226;DHT22;50545;56.064;26.178;2022-12-18T07:14:38;-14.20;99.90
64226;DHT22;50545;56.064;26.178;2022-12-18T07:17:06;-14.20;99.90
64226;DHT22;50545;56.064;26.178;2022-12-18T07:19:34;-14.10;99.90
64226;DHT22;50545;56.064;26.178;2022-12-18T07:22:01;-14.10;99.90
64226;DHT22;50545;56.064;26.178;2022-12-18T07:24:30;-14.00;99.90
64226;DHT22;50545;56.064;26.178;2022-12-18T07:26:57;-14.00;99.90
64226;DHT22;50545;56.064;26.178;2022-12-18T07:29:24;-13.90;99.90
64226;DHT22;50545;56.064;26.178;2022-12-18T07:31:51;-13.80;99.90
64226;DHT22;50545;56.064;26.178;2022-12-18T07:34:19;-13.70;99.90
64226;DHT22;50545;56.064;26.178;2022-12-18T07:36:46;-13.60;99.90
64226;DHT22;50545;56.064;26.178;2022-12-18T07:39:13;-13.50;99.90
64226;DHT22;50545;56.064;26.178;2022-12-18T07:41:40;-13.40;99.90
64226;DHT22;50545;56.064;26.178;2022-12-18T07:44:13;-13.30;99.90
64226;DHT22;50545;56.064;26.178;2022-12-18T07:46:40;-13.20;99.90
64226;DHT22;50545;56.064;26.178;2022-12-18T07:49:07;-13.10;99.90
64226;DHT22;50545;56.064;26.178;2022-12-18T07:51:34;-13.00;99.90
64226;DHT22;50545;56.064;26.178;2022-12-18T07:54:02;-12.90;99.90
64226;DHT22;50545;56.064;26.178;2022-12-18T07:56:29;-12.80;99.90
64226;DHT22;50545;56.064;26.178;2022-12-18T07:58:58;-12.70;99.90
64226;DHT22;50545;56.064;26.178;2022-12-18T08:01:26;-12.60;99.90
64226;DHT22;50545;56.064;26.178;2022-12-18T08:03:53;-12.50;99.90
64226;DHT22;50545;56.064;26.178;2022-12-18T08:06:21;-12.40;99.90
64226;DHT22;50545;56.064;26.178;2022-12-18T08:08:54;-12.30;99.90
64226;DHT22;50545;56.064;26.178;2022-12-18T08:11:23;-12.20;99.90
64226;DHT22;50545;56.064;26.178;2022-12-18T08:13:51;-12.10;99.90
64226;DHT22;50545;56.064;26.178;2022-12-18T08:16:18;-12.00;99.90
64226;DHT22;50545;56.064;26.178;2022-12-18T08:18:46;-11.90;99.90
64226;DHT22;50545;56.064;26.178;2022-12-18T08:21:18;-11.80;99.90
64226;DHT22;50545;56.064;26.178;2022-12-18T08:23:47;-11.70;99.90
64226;DHT22;50545;56.064;26.178;2022-12-18T08:26:17;-11.70;99.90
64226;DHT22;50545;56.064;26.178;2022-12-18T08:28:45;-11.60;99.90
64226;DHT22;50545;56.064;26.178;2022-12-18T08:31:12;-11.50;99.90
64226;DHT22;50545;56.064;26.178;2022-12-18T08:33:40;-11.40;99.90
64226;DHT22;50545;56.064;26.178;2022-12-18T08:36:09;-11.40;99.90
64226;DHT22;50545;56.064;26.178;2022-12-18T08:38:36;-11.30;99.90
64226;DHT22;50545;56.064;26.178;2022-12-18T08:41:06;-11.20;99.90
64226;DHT22;50545;56.064;26.178;2022-12-18T08:43:34;-11.10;99.90
64226;DHT22;50545;56.064;26.178;2022-12-18T08:46:21;-11.00;99.90
64226;DHT22;50545;56.064;26.178;2022-12-18T08:48:50;-10.90;99.90
64226;DHT22;50545;56.064;26.178;2022-12-18T08:51:18;-10.80;99.90
64226;DHT22;50545;56.064;26.178;2022-12-18T08:53:46;-10.70;99.90
64226;DHT22;50545;56.064;26.178;2022-12-18T08:56:14;-10.60;99.90
64226;DHT22;50545;56.064;26.178;2022-12-18T08:58:42;-10.50;99.90
64226;DHT22;50545;56.064;26.178;2022-12-18T09:01:11;-10.40;99.90
64226;DHT22;50545;56.064;26.178;2022-12-18T09:03:39;-10.30;99.90
64226;DHT22;50545;56.064;26.178;2022-12-18T09:06:07;-10.30;99.90
64226;DHT22;50545;56.064;26.178;2022-12-18T09:08:35;-10.10;99.90
64226;DHT22;50545;56.064;26.178;2022-12-18T09:11:04;-10.10;99.90
64226;DHT22;50545;56.064;26.178;2022-12-18T09:13:31;-10.00;99.90
64226;DHT22;50545;56.064;26.178;2022-12-18T09:15:58;-9.90;99.90
64226;DHT22;50545;56.064;26.178;2022-12-18T09:18:25;-9.80;99.90
64226;DHT22;50545;56.064;26.178;2022-12-18T09:20:53;-9.80;99.90
64226;DHT22;50545;56.064;26.178;2022-12-18T09:23:21;-9.60;99.90
64226;DHT22;50545;56.064;26.178;2022-12-18T09:25:48;-9.60;99.90
64226;DHT22;50545;56.064;26.178;2022-12-18T09:28:17;-9.50;99.90
64226;DHT22;50545;56.064;26.178;2022-12-18T09:30:47;-9.50;99.90
64226;DHT22;50545;56.064;26.178;2022-12-18T09:33:16;-9.40;99.90
64226;DHT22;50545;56.064;26.178;2022-12-18T09:35:45;-9.40;99.90
64226;DHT22;50545;56.064;26.178;2022-12-18T09:38:14;-9.40;99.90
64226;DHT22;50545;56.064;26.178;2022-12-18T09:40:45;-9.40;99.90
64226;DHT22;50545;56.064;26.178;2022-12-18T09:43:28;-9.50;99.90
64226;DHT22;50545;56.064;26.178;2022-12-18T09:46:01;-9.50;99.90
64226;DHT22;50545;56.064;26.178;2022-12-18T09:48:35;-9.50;99.90
64226;DHT22;50545;56.064;26.178;2022-12-18T09:51:18;-9.60;99.90
64226;DHT22;50545;56.064;26.178;2022-12-18T09:53:52;-9.70;99.90
64226;DHT22;50545;56.064;26.178;2022-12-18T09:56:22;-9.70;99.90
64226;DHT22;50545;56.064;26.178;2022-12-18T09:58:56;-9.80;99.90
64226;DHT22;50545;56.064;26.178;2022-12-18T10:01:25;-9.80;99.90
64226;DHT22;50545;56.064;26.178;2022-12-18T10:04:07;-9.90;99.90
64226;DHT22;50545;56.064;26.178;2022-12-18T10:15:24;-9.90;99.90
64226;DHT22;50545;56.064;26.178;2022-12-18T10:18:05;-9.90;99.90
64226;DHT22;50545;56.064;26.178;2022-12-18T10:20:56;-9.90;99.90
64226;DHT22;50545;56.064;26.178;2022-12-18T10:26:14;-9.90;99.90
64226;DHT22;50545;56.064;26.178;2022-12-18T10:28:42;-9.90;99.90
64226;DHT22;50545;56.064;26.178;2022-12-18T10:31:22;-9.90;99.90
64226;DHT22;50545;56.064;26.178;2022-12-18T10:33:51;-9.90;99.90
64226;DHT22;50545;56.064;26.178;2022-12-18T10:36:18;-9.80;99.90
64226;DHT22;50545;56.064;26.178;2022-12-18T10:38:45;-9.80;99.90
64226;DHT22;50545;56.064;26.178;2022-12-18T10:43:47;-9.80;99.90
64226;DHT22;50545;56.064;26.178;2022-12-18T10:46:17;-9.70;99.90
64226;DHT22;50545;56.064;26.178;2022-12-18T10:51:32;-9.60;99.90
64226;DHT22;50545;56.064;26.178;2022-12-18T10:54:03;-9.50;99.90
64226;DHT22;50545;56.064;26.178;2022-12-18T10:56:34;-9.40;99.90
64226;DHT22;50545;56.064;26.178;2022-12-18T10:59:07;-9.30;99.90
64226;DHT22;50545;56.064;26.178;2022-12-18T11:04:29;-9.00;99.90
64226;DHT22;50545;56.064;26.178;2022-12-18T11:07:03;-8.80;99.90
64226;DHT22;50545;56.064;26.178;2022-12-18T11:09:35;-8.70;99.90
64226;DHT22;50545;56.064;26.178;2022-12-18T11:12:26;-8.50;99.90
64226;DHT22;50545;56.064;26.178;2022-12-18T11:14:53;-8.40;99.90
64226;DHT22;50545;56.064;26.178;2022-12-18T11:17:31;-8.30;99.90
64226;DHT22;50545;56.064;26.178;2022-12-18T11:20:01;-8.20;99.90
64226;DHT22;50545;56.064;26.178;2022-12-18T11:22:31;-8.10;99.90
64226;DHT22;50545;56.064;26.178;2022-12-18T11:28:00;-7.90;99.90
64226;DHT22;50545;56.064;26.178;2022-12-18T11:30:33;-7.80;99.90
64226;DHT22;50545;56.064;26.178;2022-12-18T11:33:27;-7.80;99.90
64226;DHT22;50545;56.064;26.178;2022-12-18T11:36:00;-7.80;99.90
64226;DHT22;50545;56.064;26.178;2022-12-18T11:38:41;-7.70;99.90
64226;DHT22;50545;56.064;26.178;2022-12-18T11:41:33;-7.70;99.90
64226;DHT22;50545;56.064;26.178;2022-12-18T11:47:16;-7.50;99.90
64226;DHT22;50545;56.064;26.178;2022-12-18T11:49:49;-7.30;99.90
64226;DHT22;50545;56.064;26.178;2022-12-18T11:52:41;-7.30;99.90
64226;DHT22;50545;56.064;26.178;2022-12-18T11:55:14;-7.20;99.90
64226;DHT22;50545;56.064;26.178;2022-12-18T11:58:00;-7.20;99.90
64226;DHT22;50545;56.064;26.178;2022-12-18T12:00:29;-7.10;99.90
64226;DHT22;50545;56.064;26.178;2022-12-18T12:14:46;-6.80;99.90
64226;DHT22;50545;56.064;26.178;2022-12-18T12:25:41;-6.70;99.90
64226;DHT22;50545;56.064;26.178;2022-12-18T12:38:46;-7.00;99.90
64226;DHT22;50545;56.064;26.178;2022-12-18T12:41:21;-7.00;99.90
64226;DHT22;50545;56.064;26.178;2022-12-18T12:44:13;-7.10;99.90
64226;DHT22;50545;56.064;26.178;2022-12-18T12:46:43;-7.10;99.90
64226;DHT22;50545;56.064;26.178;2022-12-18T12:49:17;-7.10;99.90
64226;DHT22;50545;56.064;26.178;2022-12-18T12:52:07;-7.20;99.90
64226;DHT22;50545;56.064;26.178;2022-12-18T12:54:41;-7.20;99.90
64226;DHT22;50545;56.064;26.178;2022-12-18T13:00:10;-7.30;99.90
64226;DHT22;50545;56.064;26.178;2022-12-18T13:05:38;-7.30;99.90
64226;DHT22;50545;56.064;26.178;2022-12-18T13:08:09;-7.30;99.90
64226;DHT22;50545;56.064;26.178;2022-12-18T13:10:39;-7.40;99.90
64226;DHT22;50545;56.064;26.178;2022-12-18T13:13:10;-7.40;99.90
64226;DHT22;50545;56.064;26.178;2022-12-18T13:18:15;-7.40;99.90
64226;DHT22;50545;56.064;26.178;2022-12-18T13:21:01;-7.40;99.90
64226;DHT22;50545;56.064;26.178;2022-12-18T13:28:55;-7.40;99.90
64226;DHT22;50545;56.064;26.178;2022-12-18T13:37:35;-7.40;99.90
64226;DHT22;50545;56.064;26.178;2022-12-18T13:39:45;-7.40;99.90
64226;DHT22;50545;56.064;26.178;2022-12-18T13:45:00;-7.40;99.90
64226;DHT22;50545;56.064;26.178;2022-12-18T13:47:36;-7.30;99.90
64226;DHT22;50545;56.064;26.178;2022-12-18T13:50:24;-7.30;99.90
64226;DHT22;50545;56.064;26.178;2022-12-18T13:52:59;-7.30;99.90
64226;DHT22;50545;56.064;26.178;2022-12-18T13:55:27;-7.20;99.90
64226;DHT22;50545;56.064;26.178;2022-12-18T13:58:04;-7.30;99.90
64226;DHT22;50545;56.064;26.178;2022-12-18T14:00:33;-7.30;99.90
64226;DHT22;50545;56.064;26.178;2022-12-18T14:03:00;-7.30;99.90
64226;DHT22;50545;56.064;26.178;2022-12-18T14:05:31;-7.40;99.90
64226;DHT22;50545;56.064;26.178;2022-12-18T14:08:00;-7.40;99.90
64226;DHT22;50545;56.064;26.178;2022-12-18T14:10:28;-7.30;99.90
64226;DHT22;50545;56.064;26.178;2022-12-18T14:13:24;-7.40;99.90
64226;DHT22;50545;56.064;26.178;2022-12-18T14:15:53;-7.40;99.90
64226;DHT22;50545;56.064;26.178;2022-12-18T14:21:14;-7.40;99.90
64226;DHT22;50545;56.064;26.178;2022-12-18T14:23:43;-7.40;99.90
64226;DHT22;50545;56.064;26.178;2022-12-18T14:28:50;-7.50;99.90
64226;DHT22;50545;56.064;26.178;2022-12-18T14:31:25;-7.50;99.90
64226;DHT22;50545;56.064;26.178;2022-12-18T14:33:53;-7.50;99.90
64226;DHT22;50545;56.064;26.178;2022-12-18T14:36:27;-7.40;99.90
64226;DHT22;50545;56.064;26.178;2022-12-18T14:38:56;-7.40;99.90
64226;DHT22;50545;56.064;26.178;2022-12-18T14:41:25;-7.40;99.90
64226;DHT22;50545;56.064;26.178;2022-12-18T14:43:54;-7.40;99.90
64226;DHT22;50545;56.064;26.178;2022-12-18T14:48:55;-7.60;99.90
64226;DHT22;50545;56.064;26.178;2022-12-18T14:51:28;-7.60;99.90
64226;DHT22;50545;56.064;26.178;2022-12-18T14:56:32;-7.70;99.90
64226;DHT22;50545;56.064;26.178;2022-12-18T14:59:03;-7.70;99.90
64226;DHT22;50545;56.064;26.178;2022-12-18T15:01:39;-7.70;99.90
64226;DHT22;50545;56.064;26.178;2022-12-18T15:04:30;-7.70;99.90
64226;DHT22;50545;56.064;26.178;2022-12-18T15:09:39;-7.70;99.90
64226;DHT22;50545;56.064;26.178;2022-12-18T15:12:24;-7.70;99.90
64226;DHT22;50545;56.064;26.178;2022-12-18T15:14:52;-7.70;99.90
64226;DHT22;50545;56.064;26.178;2022-12-18T15:17:22;-7.70;99.90
64226;DHT22;50545;56.064;26.178;2022-12-18T15:19:58;-7.70;99.90
64226;DHT22;50545;56.064;26.178;2022-12-18T15:22:31;-7.70;99.90
64226;DHT22;50545;56.064;26.178;2022-12-18T15:25:00;-7.80;99.90
64226;DHT22;50545;56.064;26.178;2022-12-18T15:27:30;-7.70;99.90
64226;DHT22;50545;56.064;26.178;2022-12-18T15:32:39;-7.70;99.90
64226;DHT22;50545;56.064;26.178;2022-12-18T15:37:40;-7.80;99.90
64226;DHT22;50545;56.064;26.178;2022-12-18T15:40:15;-7.80;99.90
64226;DHT22;50545;56.064;26.178;2022-12-18T15:42:43;-7.80;99.90
64226;DHT22;50545;56.064;26.178;2022-12-18T15:45:37;-7.80;99.90
64226;DHT22;50545;56.064;26.178;2022-12-18T15:48:31;-7.80;99.90
64226;DHT22;50545;56.064;26.178;2022-12-18T15:50:59;-7.80;99.90
64226;DHT22;50545;56.064;26.178;2022-12-18T15:53:32;-7.80;99.90
64226;DHT22;50545;56.064;26.178;2022-12-18T15:56:00;-7.80;99.90
64226;DHT22;50545;56.064;26.178;2022-12-18T15:58:45;-7.70;99.90
64226;DHT22;50545;56.064;26.178;2022-12-18T16:01:13;-7.60;99.90
64226;DHT22;50545;56.064;26.178;2022-12-18T16:03:41;-7.60;99.90
64226;DHT22;50545;56.064;26.178;2022-12-18T16:06:09;-7.60;99.90
64226;DHT22;50545;56.064;26.178;2022-12-18T16:08:37;-7.60;99.90
64226;DHT22;50545;56.064;26.178;2022-12-18T16:11:08;-7.60;99.90
64226;DHT22;50545;56.064;26.178;2022-12-18T16:13:43;-7.50;99.90
64226;DHT22;50545;56.064;26.178;2022-12-18T16:16:11;-7.50;99.90
64226;DHT22;50545;56.064;26.178;2022-12-18T16:18:38;-7.40;99.90
64226;DHT22;50545;56.064;26.178;2022-12-18T16:21:07;-7.40;99.90
64226;DHT22;50545;56.064;26.178;2022-12-18T16:23:35;-7.40;99.90
64226;DHT22;50545;56.064;26.178;2022-12-18T16:26:02;-7.40;99.90
64226;DHT22;50545;56.064;26.178;2022-12-18T16:28:29;-7.30;99.90
64226;DHT22;50545;56.064;26.178;2022-12-18T16:30:56;-7.30;99.90
64226;DHT22;50545;56.064;26.178;2022-12-18T16:33:24;-7.20;99.90
64226;DHT22;50545;56.064;26.178;2022-12-18T16:35:52;-7.20;99.90
64226;DHT22;50545;56.064;26.178;2022-12-18T16:38:19;-7.10;99.90
64226;DHT22;50545;56.064;26.178;2022-12-18T16:40:46;-7.10;99.90
64226;DHT22;50545;56.064;26.178;2022-12-18T16:43:32;-7.00;99.90
64226;DHT22;50545;56.064;26.178;2022-12-18T16:46:00;-7.00;99.90
64226;DHT22;50545;56.064;26.178;2022-12-18T16:48:27;-7.00;99.90
64226;DHT22;50545;56.064;26.178;2022-12-18T16:51:03;-6.90;99.90
64226;DHT22;50545;56.064;26.178;2022-12-18T16:53:32;-6.80;99.90
64226;DHT22;50545;56.064;26.178;2022-12-18T16:56:00;-6.80;99.90
64226;DHT22;50545;56.064;26.178;2022-12-18T16:58:30;-6.80;99.90
64226;DHT22;50545;56.064;26.178;2022-12-18T17:00:57;-6.90;99.90
64226;DHT22;50545;56.064;26.178;2022-12-18T17:03:26;-6.80;99.90
64226;DHT22;50545;56.064;26.178;2022-12-18T17:05:53;-6.80;99.90
64226;DHT22;50545;56.064;26.178;2022-12-18T17:08:20;-6.70;99.90
64226;DHT22;50545;56.064;26.178;2022-12-18T17:10:48;-6.70;99.90
64226;DHT22;50545;56.064;26.178;2022-12-18T17:13:15;-6.70;99.90
64226;DHT22;50545;56.064;26.178;2022-12-18T17:15:48;-6.60;99.90
64226;DHT22;50545;56.064;26.178;2022-12-18T17:18:15;-6.60;99.90
64226;DHT22;50545;56.064;26.178;2022-12-18T17:20:43;-6.60;99.90
64226;DHT22;50545;56.064;26.178;2022-12-18T17:23:11;-6.60;99.90
64226;DHT22;50545;56.064;26.178;2022-12-18T17:25:41;-6.60;99.90
64226;DHT22;50545;56.064;26.178;2022-12-18T17:28:09;-6.60;99.90
64226;DHT22;50545;56.064;26.178;2022-12-18T17:30:38;-6.50;99.90
64226;DHT22;50545;56.064;26.178;2022-12-18T17:33:08;-6.60;99.90
64226;DHT22;50545;56.064;26.178;2022-12-18T17:35:35;-6.50;99.90